sensor_id;sensor_type;location;lat;lon;timestamp;temperature;humidity
30206;DHT22;17010;51.306;3.150;2022-09-16T00:01:31;15.00;99.90
30206;DHT22;17010;51.306;3.150;2022-09-16T00:03:58;15.10;99.90
30206;DHT22;17010;51.306;3.150;2022-09-16T00:06:26;15.10;99.90
30206;DHT22;17010;51.306;3.150;2022-09-16T00:08:57;15.10;99.90
30206;DHT22;17010;51.306;3.150;2022-09-16T00:11:26;15.10;99.90
30206;DHT22;17010;51.306;3.150;2022-09-16T00:13:53;15.10;99.90
30206;DHT22;17010;51.306;3.150;2022-09-16T00:16:25;15.10;99.90
30206;DHT22;17010;51.306;3.150;2022-09-16T00:18:56;15.10;99.90
30206;DHT22;17010;51.306;3.150;2022-09-16T00:21:23;15.10;99.90
30206;DHT22;17010;51.306;3.150;2022-09-16T00:23:49;15.10;99.90
30206;DHT22;17010;51.306;3.150;2022-09-16T00:26:16;15.10;99.90
30206;DHT22;17010;51.306;3.150;2022-09-16T00:28:43;15.00;99.90
30206;DHT22;17010;51.306;3.150;2022-09-16T00:31:09;15.00;99.90
30206;DHT22;17010;51.306;3.150;2022-09-16T00:33:35;15.00;99.90
30206;DHT22;17010;51.306;3.150;2022-09-16T00:36:15;15.00;99.90
30206;DHT22;17010;51.306;3.150;2022-09-16T00:38:42;15.10;99.90
30206;DHT22;17010;51.306;3.150;2022-09-16T00:41:14;15.00;99.90
30206;DHT22;17010;51.306;3.150;2022-09-16T00:44:48;15.00;99.90
30206;DHT22;17010;51.306;3.150;2022-09-16T00:46:52;15.00;99.90
30206;DHT22;17010;51.306;3.150;2022-09-16T00:49:25;15.00;99.90
30206;DHT22;17010;51.306;3.150;2022-09-16T00:51:54;15.00;99.90
30206;DHT22;17010;51.306;3.150;2022-09-16T00:54:22;15.00;99.90
30206;DHT22;17010;51.306;3.150;2022-09-16T00:56:51;15.00;99.90
30206;DHT22;17010;51.306;3.150;2022-09-16T00:59:29;14.90;99.90
30206;DHT22;17010;51.306;3.150;2022-09-16T01:01:59;14.90;99.90
30206;DHT22;17010;51.306;3.150;2022-09-16T01:04:29;14.90;99.90
30206;DHT22;17010;51.306;3.150;2022-09-16T01:06:56;14.90;99.90
30206;DHT22;17010;51.306;3.150;2022-09-16T01:09:23;14.90;99.90
30206;DHT22;17010;51.306;3.150;2022-09-16T01:11:50;14.90;99.90
30206;DHT22;17010;51.306;3.150;2022-09-16T01:14:17;15.00;99.90
30206;DHT22;17010;51.306;3.150;2022-09-16T01:17:10;14.90;99.90
30206;DHT22;17010;51.306;3.150;2022-09-16T01:25:39;14.90;99.90
30206;DHT22;17010;51.306;3.150;2022-09-16T01:31:08;14.80;99.90
30206;DHT22;17010;51.306;3.150;2022-09-16T01:36:34;14.90;99.90
30206;DHT22;17010;51.306;3.150;2022-09-16T01:39:29;14.90;99.90
30206;DHT22;17010;51.306;3.150;2022-09-16T01:47:38;14.90;99.90
30206;DHT22;17010;51.306;3.150;2022-09-16T01:50:23;14.90;99.90
30206;DHT22;17010;51.306;3.150;2022-09-16T01:53:08;14.90;99.90
30206;DHT22;17010;51.306;3.150;2022-09-16T01:58:39;14.80;99.90
30206;DHT22;17010;51.306;3.150;2022-09-16T02:01:14;14.80;99.90
30206;DHT22;17010;51.306;3.150;2022-09-16T02:03:42;14.80;99.90
30206;DHT22;17010;51.306;3.150;2022-09-16T02:06:21;14.80;99.90
30206;DHT22;17010;51.306;3.150;2022-09-16T02:08:53;14.90;99.90
30206;DHT22;17010;51.306;3.150;2022-09-16T02:11:22;14.90;99.90
30206;DHT22;17010;51.306;3.150;2022-09-16T02:13:56;14.90;99.90
30206;DHT22;17010;51.306;3.150;2022-09-16T02:16:29;14.90;99.90
30206;DHT22;17010;51.306;3.150;2022-09-16T02:18:59;15.00;99.90
30206;DHT22;17010;51.306;3.150;2022-09-16T02:21:28;14.90;99.90
30206;DHT22;17010;51.306;3.150;2022-09-16T02:24:00;14.90;99.90
30206;DHT22;17010;51.306;3.150;2022-09-16T02:26:29;14.80;99.90
30206;DHT22;17010;51.306;3.150;2022-09-16T02:28:58;14.80;99.90
30206;DHT22;17010;51.306;3.150;2022-09-16T02:31:29;14.70;99.90
30206;DHT22;17010;51.306;3.150;2022-09-16T02:34:07;14.60;99.90
30206;DHT22;17010;51.306;3.150;2022-09-16T02:36:36;14.50;99.90
30206;DHT22;17010;51.306;3.150;2022-09-16T02:39:06;14.50;99.90
30206;DHT22;17010;51.306;3.150;2022-09-16T02:41:36;14.40;99.90
30206;DHT22;17010;51.306;3.150;2022-09-16T02:44:03;14.30;99.90
30206;DHT22;17010;51.306;3.150;2022-09-16T02:46:37;14.30;99.90
30206;DHT22;17010;51.306;3.150;2022-09-16T02:52:30;14.30;99.90
30206;DHT22;17010;51.306;3.150;2022-09-16T02:58:00;14.10;99.90
30206;DHT22;17010;51.306;3.150;2022-09-16T03:00:27;14.20;99.90
30206;DHT22;17010;51.306;3.150;2022-09-16T03:02:53;14.20;99.90
30206;DHT22;17010;51.306;3.150;2022-09-16T03:05:25;14.20;99.90
30206;DHT22;17010;51.306;3.150;2022-09-16T03:07:51;14.30;99.90
30206;DHT22;17010;51.306;3.150;2022-09-16T03:10:17;14.30;99.90
30206;DHT22;17010;51.306;3.150;2022-09-16T03:12:58;14.40;99.90
30206;DHT22;17010;51.306;3.150;2022-09-16T03:21:15;14.50;99.90
30206;DHT22;17010;51.306;3.150;2022-09-16T03:23:51;14.50;99.90
30206;DHT22;17010;51.306;3.150;2022-09-16T03:29:13;14.60;99.90
30206;DHT22;17010;51.306;3.150;2022-09-16T03:31:53;14.60;99.90
30206;DHT22;17010;51.306;3.150;2022-09-16T03:34:36;14.70;99.90
30206;DHT22;17010;51.306;3.150;2022-09-16T03:37:06;14.70;99.90
30206;DHT22;17010;51.306;3.150;2022-09-16T03:39:34;14.80;99.90
30206;DHT22;17010;51.306;3.150;2022-09-16T03:42:02;14.70;99.90
30206;DHT22;17010;51.306;3.150;2022-09-16T03:44:36;14.60;99.90
30206;DHT22;17010;51.306;3.150;2022-09-16T03:47:08;14.50;99.90
30206;DHT22;17010;51.306;3.150;2022-09-16T03:49:35;14.40;99.90
30206;DHT22;17010;51.306;3.150;2022-09-16T03:52:03;14.40;99.90
30206;DHT22;17010;51.306;3.150;2022-09-16T03:54:34;14.30;99.90
30206;DHT22;17010;51.306;3.150;2022-09-16T03:57:01;14.20;99.90
30206;DHT22;17010;51.306;3.150;2022-09-16T03:59:27;14.10;99.90
30206;DHT22;17010;51.306;3.150;2022-09-16T04:01:54;14.10;99.90
30206;DHT22;17010;51.306;3.150;2022-09-16T04:04:20;14.10;99.90
30206;DHT22;17010;51.306;3.150;2022-09-16T04:06:46;14.00;99.90
30206;DHT22;17010;51.306;3.150;2022-09-16T04:09:12;14.00;99.90
30206;DHT22;17010;51.306;3.150;2022-09-16T04:11:39;14.00;99.90
30206;DHT22;17010;51.306;3.150;2022-09-16T04:14:06;13.90;99.90
30206;DHT22;17010;51.306;3.150;2022-09-16T04:16:32;14.00;99.90
30206;DHT22;17010;51.306;3.150;2022-09-16T04:18:58;14.00;99.90
30206;DHT22;17010;51.306;3.150;2022-09-16T04:21:25;14.10;99.90
30206;DHT22;17010;51.306;3.150;2022-09-16T04:23:52;14.10;99.90
30206;DHT22;17010;51.306;3.150;2022-09-16T04:26:21;14.20;99.90
30206;DHT22;17010;51.306;3.150;2022-09-16T04:28:47;14.20;99.90
30206;DHT22;17010;51.306;3.150;2022-09-16T04:31:14;14.30;99.90
30206;DHT22;17010;51.306;3.150;2022-09-16T04:33:40;14.30;99.90
30206;DHT22;17010;51.306;3.150;2022-09-16T04:36:12;14.30;99.90
30206;DHT22;17010;51.306;3.150;2022-09-16T04:38:38;14.40;99.90
30206;DHT22;17010;51.306;3.150;2022-09-16T04:41:25;14.40;99.90
30206;DHT22;17010;51.306;3.150;2022-09-16T04:43:55;14.40;99.90
30206;DHT22;17010;51.306;3.150;2022-09-16T04:46:23;14.40;99.90
30206;DHT22;17010;51.306;3.150;2022-09-16T04:48:50;14.50;99.90
30206;DHT22;17010;51.306;3.150;2022-09-16T04:51:17;14.50;99.90
30206;DHT22;17010;51.306;3.150;2022-09-16T04:53:45;14.60;99.90
30206;DHT22;17010;51.306;3.150;2022-09-16T04:56:17;14.60;99.90
30206;DHT22;17010;51.306;3.150;2022-09-16T04:58:48;14.60;99.90
30206;DHT22;17010;51.306;3.150;2022-09-16T05:01:18;14.60;99.90
30206;DHT22;17010;51.306;3.150;2022-09-16T05:03:47;14.60;99.90
30206;DHT22;17010;51.306;3.150;2022-09-16T05:06:21;14.70;99.90
30206;DHT22;17010;51.306;3.150;2022-09-16T05:08:48;14.60;99.90
30206;DHT22;17010;51.306;3.150;2022-09-16T05:11:21;14.60;99.90
30206;DHT22;17010;51.306;3.150;2022-09-16T05:13:48;14.50;99.90
30206;DHT22;17010;51.306;3.150;2022-09-16T05:16:16;14.40;99.90
30206;DHT22;17010;51.306;3.150;2022-09-16T05:18:45;14.40;99.90
30206;DHT22;17010;51.306;3.150;2022-09-16T05:21:16;14.40;99.90
30206;DHT22;17010;51.306;3.150;2022-09-16T05:23:42;14.40;99.90
30206;DHT22;17010;51.306;3.150;2022-09-16T05:26:11;14.40;99.90
30206;DHT22;17010;51.306;3.150;2022-09-16T05:28:38;14.40;99.90
30206;DHT22;17010;51.306;3.150;2022-09-16T05:33:42;14.40;99.90
30206;DHT22;17010;51.306;3.150;2022-09-16T05:36:15;14.40;99.90
30206;DHT22;17010;51.306;3.150;2022-09-16T05:38:42;14.40;99.90
30206;DHT22;17010;51.306;3.150;2022-09-16T05:41:08;14.50;99.90
30206;DHT22;17010;51.306;3.150;2022-09-16T05:43:35;14.50;99.90
30206;DHT22;17010;51.306;3.150;2022-09-16T05:46:02;14.60;99.90
30206;DHT22;17010;51.306;3.150;2022-09-16T05:48:29;14.60;99.90
30206;DHT22;17010;51.306;3.150;2022-09-16T05:51:03;14.60;99.90
30206;DHT22;17010;51.306;3.150;2022-09-16T05:53:31;14.70;99.90
30206;DHT22;17010;51.306;3.150;2022-09-16T05:56:01;14.70;99.90
30206;DHT22;17010;51.306;3.150;2022-09-16T05:58:28;14.70;99.90
30206;DHT22;17010;51.306;3.150;2022-09-16T06:01:06;14.70;99.90
30206;DHT22;17010;51.306;3.150;2022-09-16T06:03:35;14.80;99.90
30206;DHT22;17010;51.306;3.150;2022-09-16T06:08:33;14.60;99.90
30206;DHT22;17010;51.306;3.150;2022-09-16T06:11:04;14.60;99.90
30206;DHT22;17010;51.306;3.150;2022-09-16T06:13:30;14.50;99.90
30206;DHT22;17010;51.306;3.150;2022-09-16T06:15:58;14.50;99.90
30206;DHT22;17010;51.306;3.150;2022-09-16T06:18:27;14.50;99.90
30206;DHT22;17010;51.306;3.150;2022-09-16T06:20:56;14.50;99.90
30206;DHT22;17010;51.306;3.150;2022-09-16T06:23:23;14.60;99.90
30206;DHT22;17010;51.306;3.150;2022-09-16T06:26:04;14.60;99.90
30206;DHT22;17010;51.306;3.150;2022-09-16T06:28:32;14.60;99.90
30206;DHT22;17010;51.306;3.150;2022-09-16T06:31:27;14.70;99.90
30206;DHT22;17010;51.306;3.150;2022-09-16T06:33:54;14.70;99.90
30206;DHT22;17010;51.306;3.150;2022-09-16T06:36:22;14.80;99.90
30206;DHT22;17010;51.306;3.150;2022-09-16T06:38:49;14.90;99.90
30206;DHT22;17010;51.306;3.150;2022-09-16T06:41:17;14.90;99.90
30206;DHT22;17010;51.306;3.150;2022-09-16T06:43:44;14.90;99.90
30206;DHT22;17010;51.306;3.150;2022-09-16T06:46:12;14.80;99.90
30206;DHT22;17010;51.306;3.150;2022-09-16T06:48:42;14.80;99.90
30206;DHT22;17010;51.306;3.150;2022-09-16T06:51:11;14.80;99.90
30206;DHT22;17010;51.306;3.150;2022-09-16T06:53:37;14.80;99.90
30206;DHT22;17010;51.306;3.150;2022-09-16T06:56:06;14.80;99.90
30206;DHT22;17010;51.306;3.150;2022-09-16T06:58:34;14.80;99.90
30206;DHT22;17010;51.306;3.150;2022-09-16T07:01:04;14.80;99.90
30206;DHT22;17010;51.306;3.150;2022-09-16T07:03:31;14.90;99.90
30206;DHT22;17010;51.306;3.150;2022-09-16T07:05:58;14.90;99.90
30206;DHT22;17010;51.306;3.150;2022-09-16T07:08:33;15.00;99.90
30206;DHT22;17010;51.306;3.150;2022-09-16T07:11:02;15.10;99.90
30206;DHT22;17010;51.306;3.150;2022-09-16T07:13:29;15.10;99.90
30206;DHT22;17010;51.306;3.150;2022-09-16T07:16:02;15.00;99.90
30206;DHT22;17010;51.306;3.150;2022-09-16T07:18:30;14.90;99.90
30206;DHT22;17010;51.306;3.150;2022-09-16T07:23:35;14.50;99.90
30206;DHT22;17010;51.306;3.150;2022-09-16T07:26:06;14.10;99.90
30206;DHT22;17010;51.306;3.150;2022-09-16T07:28:33;13.80;99.90
30206;DHT22;17010;51.306;3.150;2022-09-16T07:31:02;13.60;99.90
30206;DHT22;17010;51.306;3.150;2022-09-16T07:33:30;13.40;99.90
30206;DHT22;17010;51.306;3.150;2022-09-16T07:35:59;13.40;99.90
30206;DHT22;17010;51.306;3.150;2022-09-16T07:38:26;13.40;99.90
30206;DHT22;17010;51.306;3.150;2022-09-16T07:40:53;13.40;99.90
30206;DHT22;17010;51.306;3.150;2022-09-16T07:43:19;13.50;99.90
30206;DHT22;17010;51.306;3.150;2022-09-16T07:45:45;13.60;99.90
30206;DHT22;17010;51.306;3.150;2022-09-16T07:48:12;13.60;99.90
30206;DHT22;17010;51.306;3.150;2022-09-16T07:50:38;13.60;99.90
30206;DHT22;17010;51.306;3.150;2022-09-16T07:53:04;13.70;99.90
30206;DHT22;17010;51.306;3.150;2022-09-16T07:55:30;13.80;99.90
30206;DHT22;17010;51.306;3.150;2022-09-16T07:57:56;13.90;99.90
30206;DHT22;17010;51.306;3.150;2022-09-16T08:00:23;14.00;99.90
30206;DHT22;17010;51.306;3.150;2022-09-16T08:02:49;14.10;99.90
30206;DHT22;17010;51.306;3.150;2022-09-16T08:05:15;14.20;99.90
30206;DHT22;17010;51.306;3.150;2022-09-16T08:07:41;14.30;99.90
30206;DHT22;17010;51.306;3.150;2022-09-16T08:10:07;14.60;99.90
30206;DHT22;17010;51.306;3.150;2022-09-16T08:12:33;14.60;99.90
30206;DHT22;17010;51.306;3.150;2022-09-16T08:15:00;14.60;99.90
30206;DHT22;17010;51.306;3.150;2022-09-16T08:17:26;14.50;99.90
30206;DHT22;17010;51.306;3.150;2022-09-16T08:19:52;14.50;99.90
30206;DHT22;17010;51.306;3.150;2022-09-16T08:22:18;14.60;99.90
30206;DHT22;17010;51.306;3.150;2022-09-16T08:24:44;14.70;99.90
30206;DHT22;17010;51.306;3.150;2022-09-16T08:27:11;14.80;99.90
30206;DHT22;17010;51.306;3.150;2022-09-16T08:29:37;14.80;99.90
30206;DHT22;17010;51.306;3.150;2022-09-16T08:32:03;14.90;99.90
30206;DHT22;17010;51.306;3.150;2022-09-16T08:34:29;14.90;99.90
30206;DHT22;17010;51.306;3.150;2022-09-16T08:36:55;14.90;99.90
30206;DHT22;17010;51.306;3.150;2022-09-16T08:39:22;14.90;99.90
30206;DHT22;17010;51.306;3.150;2022-09-16T08:47:04;15.10;99.90
30206;DHT22;17010;51.306;3.150;2022-09-16T08:49:45;15.10;99.90
30206;DHT22;17010;51.306;3.150;2022-09-16T08:52:32;15.20;99.90
30206;DHT22;17010;51.306;3.150;2022-09-16T08:55:37;15.90;99.90
30206;DHT22;17010;51.306;3.150;2022-09-16T08:58:03;16.60;99.90
30206;DHT22;17010;51.306;3.150;2022-09-16T09:00:32;17.20;99.90
30206;DHT22;17010;51.306;3.150;2022-09-16T09:05:46;17.00;99.90
30206;DHT22;17010;51.306;3.150;2022-09-16T09:11:09;15.90;99.90
30206;DHT22;17010;51.306;3.150;2022-09-16T09:27:39;14.20;99.90
30206;DHT22;17010;51.306;3.150;2022-09-16T09:30:18;14.30;99.90
30206;DHT22;17010;51.306;3.150;2022-09-16T09:40:56;14.80;99.90
30206;DHT22;17010;51.306;3.150;2022-09-16T09:43:45;14.80;99.90
30206;DHT22;17010;51.306;3.150;2022-09-16T09:46:27;14.80;99.90
30206;DHT22;17010;51.306;3.150;2022-09-16T09:51:44;14.70;99.90
30206;DHT22;17010;51.306;3.150;2022-09-16T09:57:21;14.70;99.90
30206;DHT22;17010;51.306;3.150;2022-09-16T09:59:52;14.80;99.90
30206;DHT22;17010;51.306;3.150;2022-09-16T10:02:21;15.00;99.90
30206;DHT22;17010;51.306;3.150;2022-09-16T10:04:47;15.10;99.90
30206;DHT22;17010;51.306;3.150;2022-09-16T10:07:19;15.10;99.90
30206;DHT22;17010;51.306;3.150;2022-09-16T10:09:51;15.20;99.90
30206;DHT22;17010;51.306;3.150;2022-09-16T10:12:33;15.40;99.90
30206;DHT22;17010;51.306;3.150;2022-09-16T10:15:00;15.50;99.90
30206;DHT22;17010;51.306;3.150;2022-09-16T10:17:29;15.60;99.90
30206;DHT22;17010;51.306;3.150;2022-09-16T10:20:01;15.80;99.90
30206;DHT22;17010;51.306;3.150;2022-09-16T10:22:32;16.00;99.90
30206;DHT22;17010;51.306;3.150;2022-09-16T10:25:03;16.10;99.90
30206;DHT22;17010;51.306;3.150;2022-09-16T10:27:34;16.30;99.90
30206;DHT22;17010;51.306;3.150;2022-09-16T10:35:24;16.70;99.90
30206;DHT22;17010;51.306;3.150;2022-09-16T10:38:02;16.90;99.90
30206;DHT22;17010;51.306;3.150;2022-09-16T10:40:29;17.20;99.90
30206;DHT22;17010;51.306;3.150;2022-09-16T10:43:01;17.70;99.90
30206;DHT22;17010;51.306;3.150;2022-09-16T10:45:33;17.90;99.90
30206;DHT22;17010;51.306;3.150;2022-09-16T10:48:06;18.10;99.90
30206;DHT22;17010;51.306;3.150;2022-09-16T10:50:35;18.50;99.90
30206;DHT22;17010;51.306;3.150;2022-09-16T10:53:02;18.50;99.90
30206;DHT22;17010;51.306;3.150;2022-09-16T10:55:30;18.10;99.90
30206;DHT22;17010;51.306;3.150;2022-09-16T10:58:17;17.70;99.90
30206;DHT22;17010;51.306;3.150;2022-09-16T11:09:14;17.30;99.90
30206;DHT22;17010;51.306;3.150;2022-09-16T11:26:11;16.70;99.90
30206;DHT22;17010;51.306;3.150;2022-09-16T11:34:25;17.00;99.90
30206;DHT22;17010;51.306;3.150;2022-09-16T11:37:18;16.90;99.90
30206;DHT22;17010;51.306;3.150;2022-09-16T11:40:06;16.80;99.90
30206;DHT22;17010;51.306;3.150;2022-09-16T11:42:36;16.90;99.90
30206;DHT22;17010;51.306;3.150;2022-09-16T11:45:14;17.30;99.90
30206;DHT22;17010;51.306;3.150;2022-09-16T12:06:53;17.10;99.90
30206;DHT22;17010;51.306;3.150;2022-09-16T12:09:31;17.40;99.90
30206;DHT22;17010;51.306;3.150;2022-09-16T12:12:39;17.10;99.90
30206;DHT22;17010;51.306;3.150;2022-09-16T12:15:33;17.00;99.90
30206;DHT22;17010;51.306;3.150;2022-09-16T12:18:10;17.20;99.90
30206;DHT22;17010;51.306;3.150;2022-09-16T12:20:41;17.50;99.90
30206;DHT22;17010;51.306;3.150;2022-09-16T12:23:21;17.10;99.90
30206;DHT22;17010;51.306;3.150;2022-09-16T12:28:34;16.30;99.90
30206;DHT22;17010;51.306;3.150;2022-09-16T12:31:20;16.10;99.90
30206;DHT22;17010;51.306;3.150;2022-09-16T12:34:16;16.10;99.90
30206;DHT22;17010;51.306;3.150;2022-09-16T12:36:46;16.00;99.90
30206;DHT22;17010;51.306;3.150;2022-09-16T12:39:13;16.10;99.90
30206;DHT22;17010;51.306;3.150;2022-09-16T12:53:13;16.90;99.90
30206;DHT22;17010;51.306;3.150;2022-09-16T12:56:08;16.80;99.90
30206;DHT22;17010;51.306;3.150;2022-09-16T12:58:52;16.50;99.90
30206;DHT22;17010;51.306;3.150;2022-09-16T13:02:02;16.40;99.90
30206;DHT22;17010;51.306;3.150;2022-09-16T13:04:49;16.60;99.90
30206;DHT22;17010;51.306;3.150;2022-09-16T13:07:39;16.40;99.90
30206;DHT22;17010;51.306;3.150;2022-09-16T13:10:34;16.40;99.90
30206;DHT22;17010;51.306;3.150;2022-09-16T13:13:04;16.50;99.90
30206;DHT22;17010;51.306;3.150;2022-09-16T13:15:34;16.40;99.90
30206;DHT22;17010;51.306;3.150;2022-09-16T13:18:21;16.30;99.90
30206;DHT22;17010;51.306;3.150;2022-09-16T13:21:27;16.50;99.90
30206;DHT22;17010;51.306;3.150;2022-09-16T13:24:25;16.70;99.90
30206;DHT22;17010;51.306;3.150;2022-09-16T13:26:53;16.80;99.90
30206;DHT22;17010;51.306;3.150;2022-09-16T13:29:37;17.00;99.90
30206;DHT22;17010;51.306;3.150;2022-09-16T13:32:22;17.00;99.90
30206;DHT22;17010;51.306;3.150;2022-09-16T13:34:59;16.80;99.90
30206;DHT22;17010;51.306;3.150;2022-09-16T13:37:26;17.10;99.90
30206;DHT22;17010;51.306;3.150;2022-09-16T13:39:52;17.20;99.90
30206;DHT22;17010;51.306;3.150;2022-09-16T13:42:20;17.50;99.90
30206;DHT22;17010;51.306;3.150;2022-09-16T13:44:47;17.30;99.90
30206;DHT22;17010;51.306;3.150;2022-09-16T13:47:16;17.30;99.90
30206;DHT22;17010;51.306;3.150;2022-09-16T13:49:48;17.40;99.90
30206;DHT22;17010;51.306;3.150;2022-09-16T13:52:32;17.20;99.90
30206;DHT22;17010;51.306;3.150;2022-09-16T13:55:04;16.90;99.90
30206;DHT22;17010;51.306;3.150;2022-09-16T13:57:42;16.80;99.90
30206;DHT22;17010;51.306;3.150;2022-09-16T14:00:35;16.70;99.90
30206;DHT22;17010;51.306;3.150;2022-09-16T14:07:03;16.20;99.90
30206;DHT22;17010;51.306;3.150;2022-09-16T14:15:01;15.40;99.90
30206;DHT22;17010;51.306;3.150;2022-09-16T14:20:03;15.20;99.90
30206;DHT22;17010;51.306;3.150;2022-09-16T14:22:30;15.20;99.90
30206;DHT22;17010;51.306;3.150;2022-09-16T14:24:56;15.20;99.90
30206;DHT22;17010;51.306;3.150;2022-09-16T14:27:31;15.20;99.90
30206;DHT22;17010;51.306;3.150;2022-09-16T14:30:18;15.30;99.90
30206;DHT22;17010;51.306;3.150;2022-09-16T14:33:05;15.30;99.90
30206;DHT22;17010;51.306;3.150;2022-09-16T14:35:54;15.20;99.90
30206;DHT22;17010;51.306;3.150;2022-09-16T14:38:32;15.10;99.90
30206;DHT22;17010;51.306;3.150;2022-09-16T14:40:58;15.10;99.90
30206;DHT22;17010;51.306;3.150;2022-09-16T14:43:36;15.20;99.90
30206;DHT22;17010;51.306;3.150;2022-09-16T14:46:05;14.90;99.90
30206;DHT22;17010;51.306;3.150;2022-09-16T14:48:33;14.80;99.90
30206;DHT22;17010;51.306;3.150;2022-09-16T14:51:00;14.80;99.90
30206;DHT22;17010;51.306;3.150;2022-09-16T14:53:32;14.80;99.90
30206;DHT22;17010;51.306;3.150;2022-09-16T14:56:02;14.80;99.90
30206;DHT22;17010;51.306;3.150;2022-09-16T14:58:30;14.80;99.90
30206;DHT22;17010;51.306;3.150;2022-09-16T15:01:06;14.70;99.90
30206;DHT22;17010;51.306;3.150;2022-09-16T15:04:03;14.70;99.90
30206;DHT22;17010;51.306;3.150;2022-09-16T15:06:40;14.70;99.90
30206;DHT22;17010;51.306;3.150;2022-09-16T15:12:27;14.60;99.90
30206;DHT22;17010;51.306;3.150;2022-09-16T15:14:54;14.70;99.90
30206;DHT22;17010;51.306;3.150;2022-09-16T15:17:21;14.70;99.90
30206;DHT22;17010;51.306;3.150;2022-09-16T15:19:54;14.70;99.90
30206;DHT22;17010;51.306;3.150;2022-09-16T15:22:21;14.80;99.90
30206;DHT22;17010;51.306;3.150;2022-09-16T15:24:51;14.90;99.90
30206;DHT22;17010;51.306;3.150;2022-09-16T15:27:42;14.90;99.90
30206;DHT22;17010;51.306;3.150;2022-09-16T15:30:20;15.00;99.90
30206;DHT22;17010;51.306;3.150;2022-09-16T15:32:48;15.00;99.90
30206;DHT22;17010;51.306;3.150;2022-09-16T15:35:34;15.00;99.90
30206;DHT22;17010;51.306;3.150;2022-09-16T15:38:10;14.90;99.90
30206;DHT22;17010;51.306;3.150;2022-09-16T15:40:39;14.70;99.90
30206;DHT22;17010;51.306;3.150;2022-09-16T15:45:43;13.70;99.90
30206;DHT22;17010;51.306;3.150;2022-09-16T15:48:19;13.50;99.90
30206;DHT22;17010;51.306;3.150;2022-09-16T15:50:49;13.20;99.90
30206;DHT22;17010;51.306;3.150;2022-09-16T15:56:03;12.70;99.90
30206;DHT22;17010;51.306;3.150;2022-09-16T15:58:38;12.50;99.90
30206;DHT22;17010;51.306;3.150;2022-09-16T16:06:10;12.20;99.90
30206;DHT22;17010;51.306;3.150;2022-09-16T16:08:50;12.20;99.90
30206;DHT22;17010;51.306;3.150;2022-09-16T16:11:19;12.10;99.90
30206;DHT22;17010;51.306;3.150;2022-09-16T16:13:46;12.10;99.90
30206;DHT22;17010;51.306;3.150;2022-09-16T16:16:13;12.20;99.90
30206;DHT22;17010;51.306;3.150;2022-09-16T16:18:44;12.30;99.90
30206;DHT22;17010;51.306;3.150;2022-09-16T16:21:12;12.30;99.90
30206;DHT22;17010;51.306;3.150;2022-09-16T16:23:39;12.50;99.90
30206;DHT22;17010;51.306;3.150;2022-09-16T16:26:08;12.60;99.90
30206;DHT22;17010;51.306;3.150;2022-09-16T16:28:35;12.80;99.90
30206;DHT22;17010;51.306;3.150;2022-09-16T16:31:13;12.90;99.90
30206;DHT22;17010;51.306;3.150;2022-09-16T16:33:44;13.00;99.90
30206;DHT22;17010;51.306;3.150;2022-09-16T16:36:15;13.00;99.90
30206;DHT22;17010;51.306;3.150;2022-09-16T16:38:42;12.80;99.90
30206;DHT22;17010;51.306;3.150;2022-09-16T16:41:08;12.70;99.90
30206;DHT22;17010;51.306;3.150;2022-09-16T16:43:37;12.70;99.90
30206;DHT22;17010;51.306;3.150;2022-09-16T16:46:03;12.70;99.90
30206;DHT22;17010;51.306;3.150;2022-09-16T16:48:30;12.50;99.90
30206;DHT22;17010;51.306;3.150;2022-09-16T16:50:58;12.40;99.90
30206;DHT22;17010;51.306;3.150;2022-09-16T16:53:24;12.30;99.90
30206;DHT22;17010;51.306;3.150;2022-09-16T16:55:51;12.30;99.90
30206;DHT22;17010;51.306;3.150;2022-09-16T16:58:18;12.40;99.90
30206;DHT22;17010;51.306;3.150;2022-09-16T17:00:44;12.50;99.90
30206;DHT22;17010;51.306;3.150;2022-09-16T17:03:14;12.60;99.90
30206;DHT22;17010;51.306;3.150;2022-09-16T17:05:40;12.70;99.90
30206;DHT22;17010;51.306;3.150;2022-09-16T17:08:06;12.70;99.90
30206;DHT22;17010;51.306;3.150;2022-09-16T17:10:34;12.70;99.90
30206;DHT22;17010;51.306;3.150;2022-09-16T17:13:00;12.60;99.90
30206;DHT22;17010;51.306;3.150;2022-09-16T17:15:26;12.50;99.90
30206;DHT22;17010;51.306;3.150;2022-09-16T17:17:52;12.50;99.90
30206;DHT22;17010;51.306;3.150;2022-09-16T17:20:18;12.50;99.90
30206;DHT22;17010;51.306;3.150;2022-09-16T17:22:45;12.60;99.90
30206;DHT22;17010;51.306;3.150;2022-09-16T17:25:11;12.70;99.90
30206;DHT22;17010;51.306;3.150;2022-09-16T17:27:37;12.80;99.90
30206;DHT22;17010;51.306;3.150;2022-09-16T17:30:03;12.90;99.90
30206;DHT22;17010;51.306;3.150;2022-09-16T17:32:30;13.00;99.90
30206;DHT22;17010;51.306;3.150;2022-09-16T17:34:56;13.20;99.90
30206;DHT22;17010;51.306;3.150;2022-09-16T17:37:22;13.20;99.90
30206;DHT22;17010;51.306;3.150;2022-09-16T17:39:48;13.20;99.90
30206;DHT22;17010;51.306;3.150;2022-09-16T17:42:15;13.00;99.90
30206;DHT22;17010;51.306;3.150;2022-09-16T17:44:41;13.00;99.90
30206;DHT22;17010;51.306;3.150;2022-09-16T17:47:07;13.00;99.90
30206;DHT22;17010;51.306;3.150;2022-09-16T17:49:33;13.00;99.90
30206;DHT22;17010;51.306;3.150;2022-09-16T17:52:00;13.20;99.90
30206;DHT22;17010;51.306;3.150;2022-09-16T17:54:26;13.20;99.90
30206;DHT22;17010;51.306;3.150;2022-09-16T17:56:52;13.20;99.90
30206;DHT22;17010;51.306;3.150;2022-09-16T17:59:18;13.20;99.90
30206;DHT22;17010;51.306;3.150;2022-09-16T18:01:45;13.20;99.90
30206;DHT22;17010;51.306;3.150;2022-09-16T18:04:11;13.30;99.90
30206;DHT22;17010;51.306;3.150;2022-09-16T18:06:42;13.30;99.90
30206;DHT22;17010;51.306;3.150;2022-09-16T18:09:10;13.40;99.90
30206;DHT22;17010;51.306;3.150;2022-09-16T18:11:43;13.40;99.90
30206;DHT22;17010;51.306;3.150;2022-09-16T18:14:53;13.40;99.90
30206;DHT22;17010;51.306;3.150;2022-09-16T18:17:43;13.50;99.90
30206;DHT22;17010;51.306;3.150;2022-09-16T18:24:00;13.60;99.90
30206;DHT22;17010;51.306;3.150;2022-09-16T18:26:27;13.60;99.90
30206;DHT22;17010;51.306;3.150;2022-09-16T18:28:54;13.50;99.90
30206;DHT22;17010;51.306;3.150;2022-09-16T18:31:22;13.40;99.90
30206;DHT22;17010;51.306;3.150;2022-09-16T18:33:52;13.40;99.90
30206;DHT22;17010;51.306;3.150;2022-09-16T18:36:21;13.30;99.90
30206;DHT22;17010;51.306;3.150;2022-09-16T18:38:52;13.30;99.90
30206;DHT22;17010;51.306;3.150;2022-09-16T18:41:21;13.40;99.90
30206;DHT22;17010;51.306;3.150;2022-09-16T18:43:55;13.50;99.90
30206;DHT22;17010;51.306;3.150;2022-09-16T18:46:23;13.50;99.90
30206;DHT22;17010;51.306;3.150;2022-09-16T18:48:50;13.50;99.90
30206;DHT22;17010;51.306;3.150;2022-09-16T18:51:18;13.60;99.90
30206;DHT22;17010;51.306;3.150;2022-09-16T18:53:46;13.60;99.90
30206;DHT22;17010;51.306;3.150;2022-09-16T18:56:14;13.60;99.90